Middletown, CT (06457)

17:11:EDT den 02. september 2014 (GMT -0400)
Middletown Framing | Change Station
CLOSE
Current Station
Personlig værstasjon
Location: Middletown, CT
Høyde over havet: 56 ft
Nearby Weather Stations
Gjeldende advarsel: Air Quality Alert

H.o.h 56 ft 41.56 °N, 72.65 °W | Updated 5 minutes ago

Klart
Klart
90.7 °F
Feels Like 100 °F
N
11.0
Vind Variabel Vind from
Gusts 14.0 mph

I dag
High -- | Low -- °F
--% Chance of Precip.
I går
High -- | Low -- °F
Precip. -- tommer
6:17 AM 7:22 PM
Første kvarter, 55% visible
Lufttrykk 29.81 tommer
Sikt 10.0 eng. mil
Skyet Klart
Varmeindeks 100 °F
Duggpunkt 74 °F
Fuktighet 58%
Regn 0.00 tommer
Snødybde Not available.
UV 3 av 12
Pollen 7.30 av 12
Ozon Moderate
Flu Activity Not available.
METAR KMMK 022053Z AUTO 20009G18KT 10SM CLR 30/22 A2981 RMK AO2 SLP092 T03000222 55013 TSNO

More Conditions Fewer Conditions

Lufttrykk 29.81 tommer
Sikt 10.0 eng. mil
Skyet Klart
Varmeindeks 100 °F
Duggpunkt 74 °F
Fuktighet 58%
Regn 0.00 tommer
Snødybde Not available.
UV 3 av 12
Pollen 7.30 av 12
Ozon Moderate
Flu Activity Not available.
METAR KMMK 022053Z AUTO 20009G18KT 10SM CLR 30/22 A2981 RMK AO2 SLP092 T03000222 55013 TSNO

More Conditions Fewer Conditions

10-Day Weather Forecast

Almanac

Astronomi

Sep. 02, 2014 Oppgang Nedgang
Virkelig tid 06:17 EDT 19:22 EDT
Tussmørke 05:49 EDT 19:50 EDT
Nautisk skumring 05:15 EDT 20:24 EDT
Astronomisk skumring 04:39 EDT 20:59 EDT
Månen 14:04 EDT Månen går ikke ned
Lengde av synlig lys 14h 01m
Dagens lengde
13h 04m
Tomorrow will be 2m 41s shorter.
Første kvarter, 55% of the Moon is Illuminated
I dag
Første kvarter
Sep 8
Fullmåne
Sep 15
Siste kvarter
Sep 24
Ny
Oct 1
Første kvarter

Dagens maks og min

State Highs State Lows

Community

WunderPhotos

Upload Photos

1,749,769 photos uploaded!

Nearby

Luftkvalitet

  Luftkvalitet AQ Indeks Forurensing
I går Moderate
OZONE
Moderate
OZONE
Tirsdag Helseskadelig for følsomme grupper
OZONE
Tirsdag Moderate
PM2.5
Onsdag God
OZONE
Onsdag God
PM2.5

Snødybde

Stasjon Depth Høyde over havet
No new snow has been reported.

Earthquake Activity

By Distance Mag. Time & Date
No recent earthquake activity has been reported nearby.
Minimum magnitude displayed is 2.5.

Coastal Water Temperatures

Sted Temperatur
New London, CT 71.1 °F
Newport, RI 72.0 °F
Quonset Point, RI 73.0 °F
Conimicut Light, RI 75.0 °F
Providence, RI 75.0 °F

Nearby Weather Stations